sensor_id;sensor_type;location;lat;lon;timestamp;temperature;humidity
43808;DHT22;29438;50.664;10.098;2023-11-21T00:01:35;5.90;95.00
43808;DHT22;29438;50.664;10.098;2023-11-21T00:04:01;5.90;95.00
43808;DHT22;29438;50.664;10.098;2023-11-21T00:06:27;5.90;95.00
43808;DHT22;29438;50.664;10.098;2023-11-21T00:08:52;5.90;95.00
43808;DHT22;29438;50.664;10.098;2023-11-21T00:11:18;5.80;95.10
43808;DHT22;29438;50.664;10.098;2023-11-21T00:13:44;5.90;95.10
43808;DHT22;29438;50.664;10.098;2023-11-21T00:16:11;5.90;95.10
43808;DHT22;29438;50.664;10.098;2023-11-21T00:18:36;5.90;95.10
43808;DHT22;29438;50.664;10.098;2023-11-21T00:21:02;5.90;95.10
43808;DHT22;29438;50.664;10.098;2023-11-21T00:23:29;5.90;95.10
43808;DHT22;29438;50.664;10.098;2023-11-21T00:25:54;5.80;95.20
43808;DHT22;29438;50.664;10.098;2023-11-21T00:28:20;5.80;95.10
43808;DHT22;29438;50.664;10.098;2023-11-21T00:30:45;5.80;95.10
43808;DHT22;29438;50.664;10.098;2023-11-21T00:33:11;5.80;95.20
43808;DHT22;29438;50.664;10.098;2023-11-21T00:35:36;5.80;95.20
43808;DHT22;29438;50.664;10.098;2023-11-21T00:38:02;5.80;95.20
43808;DHT22;29438;50.664;10.098;2023-11-21T00:40:28;5.80;95.20
43808;DHT22;29438;50.664;10.098;2023-11-21T00:42:54;5.80;95.20
43808;DHT22;29438;50.664;10.098;2023-11-21T00:45:21;5.80;95.20
43808;DHT22;29438;50.664;10.098;2023-11-21T00:47:47;5.80;95.20
43808;DHT22;29438;50.664;10.098;2023-11-21T00:50:12;5.80;95.20
43808;DHT22;29438;50.664;10.098;2023-11-21T00:52:38;5.70;95.20
43808;DHT22;29438;50.664;10.098;2023-11-21T00:55:04;5.70;95.20
43808;DHT22;29438;50.664;10.098;2023-11-21T00:57:30;5.70;95.20
43808;DHT22;29438;50.664;10.098;2023-11-21T00:59:56;5.60;95.20
43808;DHT22;29438;50.664;10.098;2023-11-21T01:02:21;5.60;95.10
43808;DHT22;29438;50.664;10.098;2023-11-21T01:04:47;5.50;95.20
43808;DHT22;29438;50.664;10.098;2023-11-21T01:07:13;5.50;95.20
43808;DHT22;29438;50.664;10.098;2023-11-21T01:09:39;5.50;95.20
43808;DHT22;29438;50.664;10.098;2023-11-21T01:12:04;5.50;95.30
43808;DHT22;29438;50.664;10.098;2023-11-21T01:14:30;5.50;95.30
43808;DHT22;29438;50.664;10.098;2023-11-21T01:16:55;5.50;95.30
43808;DHT22;29438;50.664;10.098;2023-11-21T01:19:21;5.40;95.30
43808;DHT22;29438;50.664;10.098;2023-11-21T01:21:47;5.40;95.30
43808;DHT22;29438;50.664;10.098;2023-11-21T01:24:12;5.30;95.30
43808;DHT22;29438;50.664;10.098;2023-11-21T01:26:38;5.30;95.40
43808;DHT22;29438;50.664;10.098;2023-11-21T01:29:03;5.30;95.40
43808;DHT22;29438;50.664;10.098;2023-11-21T01:31:29;5.30;95.40
43808;DHT22;29438;50.664;10.098;2023-11-21T01:33:56;5.30;95.50
43808;DHT22;29438;50.664;10.098;2023-11-21T01:36:21;5.40;95.50
43808;DHT22;29438;50.664;10.098;2023-11-21T01:38:47;5.40;95.60
43808;DHT22;29438;50.664;10.098;2023-11-21T01:41:15;5.30;95.60
43808;DHT22;29438;50.664;10.098;2023-11-21T01:43:41;5.30;95.60
43808;DHT22;29438;50.664;10.098;2023-11-21T01:46:08;5.40;95.60
43808;DHT22;29438;50.664;10.098;2023-11-21T01:48:34;5.40;95.60
43808;DHT22;29438;50.664;10.098;2023-11-21T01:51:01;5.50;95.70
43808;DHT22;29438;50.664;10.098;2023-11-21T01:53:27;5.50;95.70
43808;DHT22;29438;50.664;10.098;2023-11-21T01:55:54;5.40;95.60
43808;DHT22;29438;50.664;10.098;2023-11-21T01:58:21;5.30;95.60
43808;DHT22;29438;50.664;10.098;2023-11-21T02:00:47;5.30;95.70
43808;DHT22;29438;50.664;10.098;2023-11-21T02:03:16;5.40;95.70
43808;DHT22;29438;50.664;10.098;2023-11-21T02:05:42;5.40;95.70
43808;DHT22;29438;50.664;10.098;2023-11-21T02:08:07;5.30;95.60
43808;DHT22;29438;50.664;10.098;2023-11-21T02:10:34;5.30;95.60
43808;DHT22;29438;50.664;10.098;2023-11-21T02:13:02;5.20;95.60
43808;DHT22;29438;50.664;10.098;2023-11-21T02:15:28;5.00;95.50
43808;DHT22;29438;50.664;10.098;2023-11-21T02:17:54;5.00;95.50
43808;DHT22;29438;50.664;10.098;2023-11-21T02:20:23;4.80;95.50
43808;DHT22;29438;50.664;10.098;2023-11-21T02:22:51;4.80;95.50
43808;DHT22;29438;50.664;10.098;2023-11-21T02:25:26;4.80;95.70
43808;DHT22;29438;50.664;10.098;2023-11-21T02:27:58;4.90;95.80
43808;DHT22;29438;50.664;10.098;2023-11-21T02:30:24;4.90;95.80
43808;DHT22;29438;50.664;10.098;2023-11-21T02:32:51;5.00;95.90
43808;DHT22;29438;50.664;10.098;2023-11-21T02:35:22;5.00;95.90
43808;DHT22;29438;50.664;10.098;2023-11-21T02:37:49;5.10;95.90
43808;DHT22;29438;50.664;10.098;2023-11-21T02:40:14;5.10;95.90
43808;DHT22;29438;50.664;10.098;2023-11-21T02:42:46;5.10;95.90
43808;DHT22;29438;50.664;10.098;2023-11-21T02:45:13;5.10;95.90
43808;DHT22;29438;50.664;10.098;2023-11-21T02:47:39;5.10;95.90
43808;DHT22;29438;50.664;10.098;2023-11-21T02:50:06;5.20;95.90
43808;DHT22;29438;50.664;10.098;2023-11-21T02:52:34;5.10;96.00
43808;DHT22;29438;50.664;10.098;2023-11-21T02:55:00;5.20;96.00
43808;DHT22;29438;50.664;10.098;2023-11-21T02:57:26;5.20;96.00
43808;DHT22;29438;50.664;10.098;2023-11-21T02:59:52;5.20;96.00
43808;DHT22;29438;50.664;10.098;2023-11-21T03:02:17;5.10;96.00
43808;DHT22;29438;50.664;10.098;2023-11-21T03:04:43;5.10;96.00
43808;DHT22;29438;50.664;10.098;2023-11-21T03:07:09;5.10;96.00
43808;DHT22;29438;50.664;10.098;2023-11-21T03:09:35;5.10;96.00
43808;DHT22;29438;50.664;10.098;2023-11-21T03:12:01;5.00;95.90
43808;DHT22;29438;50.664;10.098;2023-11-21T03:14:27;4.90;95.80
43808;DHT22;29438;50.664;10.098;2023-11-21T03:16:52;4.80;95.70
43808;DHT22;29438;50.664;10.098;2023-11-21T03:19:18;4.70;95.60
43808;DHT22;29438;50.664;10.098;2023-11-21T03:21:43;4.60;95.70
43808;DHT22;29438;50.664;10.098;2023-11-21T03:24:09;4.60;95.70
43808;DHT22;29438;50.664;10.098;2023-11-21T03:26:35;4.60;95.70
43808;DHT22;29438;50.664;10.098;2023-11-21T03:29:00;4.50;95.70
43808;DHT22;29438;50.664;10.098;2023-11-21T03:31:26;4.30;95.70
43808;DHT22;29438;50.664;10.098;2023-11-21T03:33:52;4.20;95.70
43808;DHT22;29438;50.664;10.098;2023-11-21T03:36:19;4.10;95.80
43808;DHT22;29438;50.664;10.098;2023-11-21T03:38:45;4.10;95.90
43808;DHT22;29438;50.664;10.098;2023-11-21T03:41:10;4.20;95.90
43808;DHT22;29438;50.664;10.098;2023-11-21T03:43:36;4.20;96.00
43808;DHT22;29438;50.664;10.098;2023-11-21T03:46:02;4.20;96.10
43808;DHT22;29438;50.664;10.098;2023-11-21T03:48:28;4.20;96.10
43808;DHT22;29438;50.664;10.098;2023-11-21T03:50:54;4.30;96.20
43808;DHT22;29438;50.664;10.098;2023-11-21T03:53:19;4.40;96.20
43808;DHT22;29438;50.664;10.098;2023-11-21T03:55:45;4.50;96.20
43808;DHT22;29438;50.664;10.098;2023-11-21T03:58:11;4.60;96.30
43808;DHT22;29438;50.664;10.098;2023-11-21T04:00:36;4.60;96.30
43808;DHT22;29438;50.664;10.098;2023-11-21T04:03:02;4.70;96.30
43808;DHT22;29438;50.664;10.098;2023-11-21T04:05:27;4.80;96.30
43808;DHT22;29438;50.664;10.098;2023-11-21T04:07:53;4.80;96.30
43808;DHT22;29438;50.664;10.098;2023-11-21T04:10:19;4.70;96.30
43808;DHT22;29438;50.664;10.098;2023-11-21T04:12:45;4.80;96.30
43808;DHT22;29438;50.664;10.098;2023-11-21T04:15:11;4.80;96.30
43808;DHT22;29438;50.664;10.098;2023-11-21T04:17:38;4.90;96.30
43808;DHT22;29438;50.664;10.098;2023-11-21T04:20:05;4.90;96.40
43808;DHT22;29438;50.664;10.098;2023-11-21T04:22:36;5.00;96.40
43808;DHT22;29438;50.664;10.098;2023-11-21T04:25:02;5.10;96.40
43808;DHT22;29438;50.664;10.098;2023-11-21T04:27:27;5.10;96.40
43808;DHT22;29438;50.664;10.098;2023-11-21T04:29:53;5.20;96.40
43808;DHT22;29438;50.664;10.098;2023-11-21T04:32:18;5.20;96.40
43808;DHT22;29438;50.664;10.098;2023-11-21T04:34:44;5.20;96.40
43808;DHT22;29438;50.664;10.098;2023-11-21T04:37:09;5.20;96.40
43808;DHT22;29438;50.664;10.098;2023-11-21T04:39:36;5.20;96.40
43808;DHT22;29438;50.664;10.098;2023-11-21T04:42:01;5.20;96.40
43808;DHT22;29438;50.664;10.098;2023-11-21T04:44:27;5.20;96.40
43808;DHT22;29438;50.664;10.098;2023-11-21T04:46:53;5.20;96.40
43808;DHT22;29438;50.664;10.098;2023-11-21T04:49:18;5.20;96.40
43808;DHT22;29438;50.664;10.098;2023-11-21T04:51:44;5.20;96.40
43808;DHT22;29438;50.664;10.098;2023-11-21T04:54:09;5.20;96.40
43808;DHT22;29438;50.664;10.098;2023-11-21T04:56:35;5.20;96.40
43808;DHT22;29438;50.664;10.098;2023-11-21T04:59:01;5.10;96.40
43808;DHT22;29438;50.664;10.098;2023-11-21T05:01:26;5.20;96.40
43808;DHT22;29438;50.664;10.098;2023-11-21T05:03:52;5.20;96.40
43808;DHT22;29438;50.664;10.098;2023-11-21T05:06:18;5.20;96.40
43808;DHT22;29438;50.664;10.098;2023-11-21T05:08:43;5.20;96.40
43808;DHT22;29438;50.664;10.098;2023-11-21T05:11:09;5.20;96.40
43808;DHT22;29438;50.664;10.098;2023-11-21T05:13:36;5.30;96.40
43808;DHT22;29438;50.664;10.098;2023-11-21T05:16:02;5.30;96.40
43808;DHT22;29438;50.664;10.098;2023-11-21T05:18:29;5.30;96.40
43808;DHT22;29438;50.664;10.098;2023-11-21T05:20:55;5.20;96.40
43808;DHT22;29438;50.664;10.098;2023-11-21T05:23:21;5.30;96.40
43808;DHT22;29438;50.664;10.098;2023-11-21T05:25:46;5.30;96.40
43808;DHT22;29438;50.664;10.098;2023-11-21T05:28:13;5.20;96.40
43808;DHT22;29438;50.664;10.098;2023-11-21T05:30:38;5.20;96.40
43808;DHT22;29438;50.664;10.098;2023-11-21T05:33:05;5.20;96.40
43808;DHT22;29438;50.664;10.098;2023-11-21T05:35:30;5.20;96.30
43808;DHT22;29438;50.664;10.098;2023-11-21T05:37:56;5.10;96.30
43808;DHT22;29438;50.664;10.098;2023-11-21T05:40:22;5.10;96.30
43808;DHT22;29438;50.664;10.098;2023-11-21T05:42:48;5.20;96.30
43808;DHT22;29438;50.664;10.098;2023-11-21T05:45:14;5.20;96.30
43808;DHT22;29438;50.664;10.098;2023-11-21T05:47:42;5.20;96.30
43808;DHT22;29438;50.664;10.098;2023-11-21T05:50:12;5.20;96.40
43808;DHT22;29438;50.664;10.098;2023-11-21T05:52:40;5.20;96.30
43808;DHT22;29438;50.664;10.098;2023-11-21T05:55:06;5.30;96.40
43808;DHT22;29438;50.664;10.098;2023-11-21T05:57:36;5.30;96.40
43808;DHT22;29438;50.664;10.098;2023-11-21T06:00:06;5.30;96.40
43808;DHT22;29438;50.664;10.098;2023-11-21T06:02:41;5.30;96.30
43808;DHT22;29438;50.664;10.098;2023-11-21T06:05:08;5.40;96.30
43808;DHT22;29438;50.664;10.098;2023-11-21T06:07:34;5.30;96.30
43808;DHT22;29438;50.664;10.098;2023-11-21T06:10:01;5.30;96.30
43808;DHT22;29438;50.664;10.098;2023-11-21T06:12:28;5.30;96.30
43808;DHT22;29438;50.664;10.098;2023-11-21T06:14:53;5.30;96.30
43808;DHT22;29438;50.664;10.098;2023-11-21T06:17:20;5.40;96.30
43808;DHT22;29438;50.664;10.098;2023-11-21T06:19:47;5.40;96.30
43808;DHT22;29438;50.664;10.098;2023-11-21T06:22:12;5.30;96.20
43808;DHT22;29438;50.664;10.098;2023-11-21T06:24:38;5.30;96.20
43808;DHT22;29438;50.664;10.098;2023-11-21T06:27:04;5.30;96.30
43808;DHT22;29438;50.664;10.098;2023-11-21T06:29:30;5.30;96.30
43808;DHT22;29438;50.664;10.098;2023-11-21T06:31:57;5.30;96.20
43808;DHT22;29438;50.664;10.098;2023-11-21T06:34:23;5.20;96.20
43808;DHT22;29438;50.664;10.098;2023-11-21T06:36:49;5.20;96.20
43808;DHT22;29438;50.664;10.098;2023-11-21T06:39:15;5.20;96.10
43808;DHT22;29438;50.664;10.098;2023-11-21T06:41:42;5.10;96.10
43808;DHT22;29438;50.664;10.098;2023-11-21T06:44:08;5.00;96.00
43808;DHT22;29438;50.664;10.098;2023-11-21T06:46:34;4.90;95.90
43808;DHT22;29438;50.664;10.098;2023-11-21T06:48:59;4.80;95.90
43808;DHT22;29438;50.664;10.098;2023-11-21T06:51:25;4.70;95.80
43808;DHT22;29438;50.664;10.098;2023-11-21T06:53:50;4.40;95.80
43808;DHT22;29438;50.664;10.098;2023-11-21T06:56:19;4.30;95.70
43808;DHT22;29438;50.664;10.098;2023-11-21T06:58:45;4.00;95.70
43808;DHT22;29438;50.664;10.098;2023-11-21T07:01:15;3.90;95.70
43808;DHT22;29438;50.664;10.098;2023-11-21T07:03:41;4.00;95.80
43808;DHT22;29438;50.664;10.098;2023-11-21T07:06:07;4.00;96.00
43808;DHT22;29438;50.664;10.098;2023-11-21T07:08:33;3.90;95.90
43808;DHT22;29438;50.664;10.098;2023-11-21T07:10:58;3.90;95.80
43808;DHT22;29438;50.664;10.098;2023-11-21T07:13:24;3.80;95.90
43808;DHT22;29438;50.664;10.098;2023-11-21T07:15:50;3.80;95.90
43808;DHT22;29438;50.664;10.098;2023-11-21T07:18:15;3.70;96.00
43808;DHT22;29438;50.664;10.098;2023-11-21T07:20:41;3.70;96.00
43808;DHT22;29438;50.664;10.098;2023-11-21T07:23:06;3.80;96.00
43808;DHT22;29438;50.664;10.098;2023-11-21T07:25:32;3.80;96.10
43808;DHT22;29438;50.664;10.098;2023-11-21T07:27:59;3.80;96.10
43808;DHT22;29438;50.664;10.098;2023-11-21T07:30:26;3.80;96.10
43808;DHT22;29438;50.664;10.098;2023-11-21T07:32:52;3.80;96.10
43808;DHT22;29438;50.664;10.098;2023-11-21T07:35:17;3.90;96.10
43808;DHT22;29438;50.664;10.098;2023-11-21T07:37:43;3.90;96.20
43808;DHT22;29438;50.664;10.098;2023-11-21T07:40:09;3.90;96.20
43808;DHT22;29438;50.664;10.098;2023-11-21T07:42:37;4.00;96.30
43808;DHT22;29438;50.664;10.098;2023-11-21T07:45:03;4.20;96.40
43808;DHT22;29438;50.664;10.098;2023-11-21T07:47:29;4.40;96.50
43808;DHT22;29438;50.664;10.098;2023-11-21T07:49:55;4.80;96.80
43808;DHT22;29438;50.664;10.098;2023-11-21T07:52:22;5.10;96.80
43808;DHT22;29438;50.664;10.098;2023-11-21T07:54:48;5.30;96.70
43808;DHT22;29438;50.664;10.098;2023-11-21T07:57:13;5.40;96.80
43808;DHT22;29438;50.664;10.098;2023-11-21T07:59:40;5.50;96.70
43808;DHT22;29438;50.664;10.098;2023-11-21T08:02:06;5.50;96.70
43808;DHT22;29438;50.664;10.098;2023-11-21T08:04:32;5.80;96.80
43808;DHT22;29438;50.664;10.098;2023-11-21T08:06:58;5.90;97.00
43808;DHT22;29438;50.664;10.098;2023-11-21T08:09:23;6.10;96.90
43808;DHT22;29438;50.664;10.098;2023-11-21T08:11:49;6.10;96.70
43808;DHT22;29438;50.664;10.098;2023-11-21T08:14:15;6.30;96.60
43808;DHT22;29438;50.664;10.098;2023-11-21T08:16:41;6.20;96.40
43808;DHT22;29438;50.664;10.098;2023-11-21T08:19:06;6.10;96.40
43808;DHT22;29438;50.664;10.098;2023-11-21T08:21:34;6.10;96.20
43808;DHT22;29438;50.664;10.098;2023-11-21T08:23:59;6.20;96.10
43808;DHT22;29438;50.664;10.098;2023-11-21T08:26:25;6.30;96.10
43808;DHT22;29438;50.664;10.098;2023-11-21T08:28:51;6.50;95.90
43808;DHT22;29438;50.664;10.098;2023-11-21T08:31:28;6.70;95.70
43808;DHT22;29438;50.664;10.098;2023-11-21T08:33:54;6.80;95.30
43808;DHT22;29438;50.664;10.098;2023-11-21T08:36:23;6.70;95.10
43808;DHT22;29438;50.664;10.098;2023-11-21T08:38:50;6.70;94.90
43808;DHT22;29438;50.664;10.098;2023-11-21T08:41:17;6.50;94.30
43808;DHT22;29438;50.664;10.098;2023-11-21T08:43:52;6.50;94.40
43808;DHT22;29438;50.664;10.098;2023-11-21T08:46:19;6.50;94.20
43808;DHT22;29438;50.664;10.098;2023-11-21T08:48:45;6.40;94.00
43808;DHT22;29438;50.664;10.098;2023-11-21T08:51:11;6.40;93.90
43808;DHT22;29438;50.664;10.098;2023-11-21T08:53:37;6.40;93.80
43808;DHT22;29438;50.664;10.098;2023-11-21T08:56:03;6.60;94.00
43808;DHT22;29438;50.664;10.098;2023-11-21T08:58:30;7.00;94.40
43808;DHT22;29438;50.664;10.098;2023-11-21T09:00:57;7.80;93.90
43808;DHT22;29438;50.664;10.098;2023-11-21T09:03:23;8.20;92.40
43808;DHT22;29438;50.664;10.098;2023-11-21T09:05:48;8.50;91.10
43808;DHT22;29438;50.664;10.098;2023-11-21T09:08:14;8.50;89.80
43808;DHT22;29438;50.664;10.098;2023-11-21T09:10:39;8.30;88.70
43808;DHT22;29438;50.664;10.098;2023-11-21T09:13:05;8.80;88.70
43808;DHT22;29438;50.664;10.098;2023-11-21T09:15:31;8.90;87.20
43808;DHT22;29438;50.664;10.098;2023-11-21T09:17:56;9.20;87.20
43808;DHT22;29438;50.664;10.098;2023-11-21T09:20:22;9.40;85.90
43808;DHT22;29438;50.664;10.098;2023-11-21T09:22:48;10.00;84.60
43808;DHT22;29438;50.664;10.098;2023-11-21T09:25:14;11.00;82.70
43808;DHT22;29438;50.664;10.098;2023-11-21T09:27:40;11.20;80.90
43808;DHT22;29438;50.664;10.098;2023-11-21T09:30:07;11.30;79.50
43808;DHT22;29438;50.664;10.098;2023-11-21T09:32:37;11.00;80.00
43808;DHT22;29438;50.664;10.098;2023-11-21T09:35:06;11.00;81.00
43808;DHT22;29438;50.664;10.098;2023-11-21T09:37:34;11.10;80.80
43808;DHT22;29438;50.664;10.098;2023-11-21T09:39:59;10.80;81.60
43808;DHT22;29438;50.664;10.098;2023-11-21T09:42:40;10.80;81.70
43808;DHT22;29438;50.664;10.098;2023-11-21T09:45:15;11.00;81.00
43808;DHT22;29438;50.664;10.098;2023-11-21T09:47:43;10.70;81.90
43808;DHT22;29438;50.664;10.098;2023-11-21T09:50:09;10.10;82.70
43808;DHT22;29438;50.664;10.098;2023-11-21T09:52:55;9.60;84.00
43808;DHT22;29438;50.664;10.098;2023-11-21T09:55:26;9.10;83.90
43808;DHT22;29438;50.664;10.098;2023-11-21T09:57:54;8.80;85.60
43808;DHT22;29438;50.664;10.098;2023-11-21T10:00:21;8.50;85.90
43808;DHT22;29438;50.664;10.098;2023-11-21T10:02:49;8.30;86.90
43808;DHT22;29438;50.664;10.098;2023-11-21T10:05:15;8.00;87.20
43808;DHT22;29438;50.664;10.098;2023-11-21T10:07:43;8.00;87.70
43808;DHT22;29438;50.664;10.098;2023-11-21T10:10:10;8.00;87.40
43808;DHT22;29438;50.664;10.098;2023-11-21T10:12:37;8.00;87.10
43808;DHT22;29438;50.664;10.098;2023-11-21T10:15:07;7.90;86.70
43808;DHT22;29438;50.664;10.098;2023-11-21T10:17:36;8.30;86.30
43808;DHT22;29438;50.664;10.098;2023-11-21T10:20:10;8.70;85.40
43808;DHT22;29438;50.664;10.098;2023-11-21T10:22:42;9.40;84.30
43808;DHT22;29438;50.664;10.098;2023-11-21T10:25:09;9.50;82.30
43808;DHT22;29438;50.664;10.098;2023-11-21T10:27:36;9.60;83.70
43808;DHT22;29438;50.664;10.098;2023-11-21T10:30:04;10.00;82.50
43808;DHT22;29438;50.664;10.098;2023-11-21T10:32:30;10.50;80.60
43808;DHT22;29438;50.664;10.098;2023-11-21T10:34:58;10.00;80.50
43808;DHT22;29438;50.664;10.098;2023-11-21T10:37:25;10.00;81.00
43808;DHT22;29438;50.664;10.098;2023-11-21T10:39:58;9.90;81.70
43808;DHT22;29438;50.664;10.098;2023-11-21T10:42:24;9.40;83.60
43808;DHT22;29438;50.664;10.098;2023-11-21T10:44:49;9.10;84.50
43808;DHT22;29438;50.664;10.098;2023-11-21T10:47:16;8.90;85.80
43808;DHT22;29438;50.664;10.098;2023-11-21T10:49:44;8.80;86.40
43808;DHT22;29438;50.664;10.098;2023-11-21T10:52:13;8.90;86.80
43808;DHT22;29438;50.664;10.098;2023-11-21T10:54:43;8.70;86.50
43808;DHT22;29438;50.664;10.098;2023-11-21T10:57:10;8.40;87.00
43808;DHT22;29438;50.664;10.098;2023-11-21T10:59:36;8.10;88.10
43808;DHT22;29438;50.664;10.098;2023-11-21T11:02:17;8.00;88.60
43808;DHT22;29438;50.664;10.098;2023-11-21T11:04:48;7.90;89.00
43808;DHT22;29438;50.664;10.098;2023-11-21T11:07:15;7.90;89.00
43808;DHT22;29438;50.664;10.098;2023-11-21T11:09:41;7.90;88.70
43808;DHT22;29438;50.664;10.098;2023-11-21T11:12:08;7.90;89.00
43808;DHT22;29438;50.664;10.098;2023-11-21T11:14:35;8.00;89.80
43808;DHT22;29438;50.664;10.098;2023-11-21T11:17:01;8.20;89.60
43808;DHT22;29438;50.664;10.098;2023-11-21T11:19:27;8.20;88.40
43808;DHT22;29438;50.664;10.098;2023-11-21T11:22:35;8.10;88.40
43808;DHT22;29438;50.664;10.098;2023-11-21T11:25:21;8.00;88.30
43808;DHT22;29438;50.664;10.098;2023-11-21T11:33:41;7.80;89.10
43808;DHT22;29438;50.664;10.098;2023-11-21T11:36:22;7.70;89.00
43808;DHT22;29438;50.664;10.098;2023-11-21T11:38:51;7.70;89.30
43808;DHT22;29438;50.664;10.098;2023-11-21T11:41:30;7.60;89.10
43808;DHT22;29438;50.664;10.098;2023-11-21T11:44:00;7.50;89.50
43808;DHT22;29438;50.664;10.098;2023-11-21T11:46:43;7.40;89.70
43808;DHT22;29438;50.664;10.098;2023-11-21T11:49:10;7.30;89.80
43808;DHT22;29438;50.664;10.098;2023-11-21T11:51:37;7.20;90.10
43808;DHT22;29438;50.664;10.098;2023-11-21T11:54:02;7.40;90.20
43808;DHT22;29438;50.664;10.098;2023-11-21T11:56:33;7.50;90.20
43808;DHT22;29438;50.664;10.098;2023-11-21T11:59:03;7.50;89.90
43808;DHT22;29438;50.664;10.098;2023-11-21T12:01:32;7.40;90.00
43808;DHT22;29438;50.664;10.098;2023-11-21T12:06:44;7.50;90.70
43808;DHT22;29438;50.664;10.098;2023-11-21T12:09:18;7.40;90.50
43808;DHT22;29438;50.664;10.098;2023-11-21T12:11:44;7.40;90.80
43808;DHT22;29438;50.664;10.098;2023-11-21T12:14:10;7.50;91.10
43808;DHT22;29438;50.664;10.098;2023-11-21T12:16:35;7.50;90.70
43808;DHT22;29438;50.664;10.098;2023-11-21T12:19:02;7.50;90.90
43808;DHT22;29438;50.664;10.098;2023-11-21T12:21:28;7.50;90.90
43808;DHT22;29438;50.664;10.098;2023-11-21T12:23:55;7.60;90.90
43808;DHT22;29438;50.664;10.098;2023-11-21T12:26:23;7.60;90.90
43808;DHT22;29438;50.664;10.098;2023-11-21T12:28:55;7.50;90.80
43808;DHT22;29438;50.664;10.098;2023-11-21T12:31:21;7.50;90.60
43808;DHT22;29438;50.664;10.098;2023-11-21T12:33:47;7.40;90.80
43808;DHT22;29438;50.664;10.098;2023-11-21T12:36:13;7.50;91.30
43808;DHT22;29438;50.664;10.098;2023-11-21T12:38:38;7.60;91.30
43808;DHT22;29438;50.664;10.098;2023-11-21T12:41:04;7.60;91.40
43808;DHT22;29438;50.664;10.098;2023-11-21T12:43:32;7.60;91.30
43808;DHT22;29438;50.664;10.098;2023-11-21T12:46:08;7.70;91.50
43808;DHT22;29438;50.664;10.098;2023-11-21T12:48:45;7.80;91.40
43808;DHT22;29438;50.664;10.098;2023-11-21T12:51:12;7.70;91.00
43808;DHT22;29438;50.664;10.098;2023-11-21T12:53:40;7.60;90.90
43808;DHT22;29438;50.664;10.098;2023-11-21T12:56:12;7.60;91.30
43808;DHT22;29438;50.664;10.098;2023-11-21T12:58:39;7.50;91.50
43808;DHT22;29438;50.664;10.098;2023-11-21T13:01:08;7.50;91.70
43808;DHT22;29438;50.664;10.098;2023-11-21T13:03:46;7.50;91.80
43808;DHT22;29438;50.664;10.098;2023-11-21T13:06:14;7.60;91.90
43808;DHT22;29438;50.664;10.098;2023-11-21T13:08:40;7.70;91.80
43808;DHT22;29438;50.664;10.098;2023-11-21T13:11:06;7.70;91.80
43808;DHT22;29438;50.664;10.098;2023-11-21T13:13:32;7.70;91.90
43808;DHT22;29438;50.664;10.098;2023-11-21T13:16:00;7.70;91.80
43808;DHT22;29438;50.664;10.098;2023-11-21T13:18:27;7.70;91.60
43808;DHT22;29438;50.664;10.098;2023-11-21T13:20:58;7.60;91.80
43808;DHT22;29438;50.664;10.098;2023-11-21T13:23:25;7.50;91.60
43808;DHT22;29438;50.664;10.098;2023-11-21T13:25:51;7.30;91.60
43808;DHT22;29438;50.664;10.098;2023-11-21T13:28:17;7.30;91.90
43808;DHT22;29438;50.664;10.098;2023-11-21T13:30:46;7.30;92.00
43808;DHT22;29438;50.664;10.098;2023-11-21T13:33:12;7.30;92.20
43808;DHT22;29438;50.664;10.098;2023-11-21T13:35:43;7.30;92.40
43808;DHT22;29438;50.664;10.098;2023-11-21T13:38:15;7.30;92.40
43808;DHT22;29438;50.664;10.098;2023-11-21T13:40:54;7.30;92.40
43808;DHT22;29438;50.664;10.098;2023-11-21T13:43:25;7.30;92.50
43808;DHT22;29438;50.664;10.098;2023-11-21T13:45:53;7.30;92.60
43808;DHT22;29438;50.664;10.098;2023-11-21T13:48:40;7.30;92.70
43808;DHT22;29438;50.664;10.098;2023-11-21T13:51:09;7.30;92.80
43808;DHT22;29438;50.664;10.098;2023-11-21T13:53:45;7.30;93.00
43808;DHT22;29438;50.664;10.098;2023-11-21T13:56:17;7.20;93.00
43808;DHT22;29438;50.664;10.098;2023-11-21T13:58:48;7.10;93.00
43808;DHT22;29438;50.664;10.098;2023-11-21T14:01:21;7.00;93.00
43808;DHT22;29438;50.664;10.098;2023-11-21T14:04:00;6.90;93.20
43808;DHT22;29438;50.664;10.098;2023-11-21T14:06:54;6.90;93.30
43808;DHT22;29438;50.664;10.098;2023-11-21T14:09:22;6.90;93.40
43808;DHT22;29438;50.664;10.098;2023-11-21T14:11:53;6.80;93.50
43808;DHT22;29438;50.664;10.098;2023-11-21T14:14:22;6.80;93.60
43808;DHT22;29438;50.664;10.098;2023-11-21T14:16:50;6.70;93.70
43808;DHT22;29438;50.664;10.098;2023-11-21T14:19:16;6.70;93.80
43808;DHT22;29438;50.664;10.098;2023-11-21T14:21:45;6.70;93.80
43808;DHT22;29438;50.664;10.098;2023-11-21T14:24:12;6.60;94.00
43808;DHT22;29438;50.664;10.098;2023-11-21T14:26:43;6.60;94.00
43808;DHT22;29438;50.664;10.098;2023-11-21T14:29:12;6.60;94.20
43808;DHT22;29438;50.664;10.098;2023-11-21T14:31:40;6.70;94.30
43808;DHT22;29438;50.664;10.098;2023-11-21T14:34:06;6.60;94.30
43808;DHT22;29438;50.664;10.098;2023-11-21T14:36:33;6.60;94.30
43808;DHT22;29438;50.664;10.098;2023-11-21T14:38:58;6.60;94.20
43808;DHT22;29438;50.664;10.098;2023-11-21T14:41:24;6.60;94.20
43808;DHT22;29438;50.664;10.098;2023-11-21T14:43:50;6.60;94.20
43808;DHT22;29438;50.664;10.098;2023-11-21T14:46:16;6.70;94.20
43808;DHT22;29438;50.664;10.098;2023-11-21T14:48:45;6.60;94.10
43808;DHT22;29438;50.664;10.098;2023-11-21T14:51:24;6.60;94.10
43808;DHT22;29438;50.664;10.098;2023-11-21T14:53:56;6.50;94.10
43808;DHT22;29438;50.664;10.098;2023-11-21T14:56:28;6.50;94.10
43808;DHT22;29438;50.664;10.098;2023-11-21T14:58:59;6.50;94.10
43808;DHT22;29438;50.664;10.098;2023-11-21T15:01:31;6.50;94.20
43808;DHT22;29438;50.664;10.098;2023-11-21T15:04:16;6.40;94.30
43808;DHT22;29438;50.664;10.098;2023-11-21T15:06:53;6.40;94.40
43808;DHT22;29438;50.664;10.098;2023-11-21T15:09:21;6.40;94.40
43808;DHT22;29438;50.664;10.098;2023-11-21T15:11:54;6.40;94.50
43808;DHT22;29438;50.664;10.098;2023-11-21T15:14:25;6.40;94.50
43808;DHT22;29438;50.664;10.098;2023-11-21T15:16:59;6.40;94.60
43808;DHT22;29438;50.664;10.098;2023-11-21T15:19:26;6.30;94.60
43808;DHT22;29438;50.664;10.098;2023-11-21T15:21:53;6.30;94.70
43808;DHT22;29438;50.664;10.098;2023-11-21T15:24:19;6.30;94.70
43808;DHT22;29438;50.664;10.098;2023-11-21T15:26:44;6.30;94.80
43808;DHT22;29438;50.664;10.098;2023-11-21T15:29:10;6.30;94.90
43808;DHT22;29438;50.664;10.098;2023-11-21T15:31:36;6.30;95.00
43808;DHT22;29438;50.664;10.098;2023-11-21T15:34:03;6.30;95.00
43808;DHT22;29438;50.664;10.098;2023-11-21T15:36:30;6.30;95.00
43808;DHT22;29438;50.664;10.098;2023-11-21T15:38:56;6.20;94.90
43808;DHT22;29438;50.664;10.098;2023-11-21T15:41:21;6.20;94.80